createdAt,value
2023-03-21T09:07:52.574Z,91.1
2023-03-21T09:10:51.636Z,91.8
2023-03-21T09:13:39.681Z,92.1
2023-03-21T09:16:27.861Z,92.6
2023-03-21T09:19:16.118Z,92.8
2023-03-21T09:22:04.027Z,93
2023-03-21T09:24:52.087Z,93.1
2023-03-21T09:27:40.032Z,93.4
2023-03-21T09:30:27.963Z,93.8
2023-03-21T09:33:15.753Z,94
2023-03-21T09:36:04.006Z,94.1
2023-03-21T09:38:51.706Z,94.2
2023-03-21T09:41:39.752Z,94.3
2023-03-21T09:44:27.613Z,94.2
2023-03-21T09:47:15.571Z,94.2
2023-03-21T09:50:15.331Z,94.2
2023-03-21T09:53:03.281Z,94.2
2023-03-21T09:55:51.160Z,93.7
2023-03-21T09:58:39.225Z,93.9
2023-03-21T10:01:27.084Z,94.1
2023-03-21T10:04:15.426Z,94.4
2023-03-21T10:07:03.399Z,94.5
2023-03-21T10:09:51.610Z,94.6
2023-03-21T10:12:39.500Z,94.5
2023-03-21T10:15:27.565Z,94.4
2023-03-21T10:18:15.368Z,94.4
2023-03-21T10:21:03.283Z,94.5
2023-03-21T10:23:51.395Z,94.9
2023-03-21T10:26:43.530Z,95.2
2023-03-21T10:29:31.963Z,95.4
2023-03-21T10:32:20.248Z,95.7
2023-03-21T10:35:10.690Z,96
2023-03-21T10:37:58.811Z,96.4
2023-03-21T10:40:46.779Z,96.9
2023-03-21T10:43:34.781Z,97.3
2023-03-21T10:46:23.082Z,97.6
2023-03-21T10:49:11.750Z,97.8
2023-03-21T10:51:59.729Z,98
2023-03-21T10:54:47.556Z,98.3
2023-03-21T10:57:35.386Z,98.1
2023-03-21T11:00:23.430Z,98.4
2023-03-21T11:03:11.360Z,98.1
2023-03-21T11:05:59.144Z,98
2023-03-21T11:08:47.196Z,97.8
2023-03-21T11:11:35.131Z,96.9
2023-03-21T11:14:22.856Z,97.4
2023-03-21T11:17:10.996Z,97.2
2023-03-21T11:19:59.006Z,96.5
2023-03-21T11:22:47.073Z,97.2
2023-03-21T11:25:35.071Z,97.5
2023-03-21T11:28:23.115Z,96.5
2023-03-21T11:31:11.548Z,94.9
2023-03-21T11:33:59.648Z,95.8
2023-03-21T11:36:47.532Z,96.2
2023-03-21T11:39:35.602Z,95.2
2023-03-21T11:42:23.566Z,94.7
2023-03-21T11:45:11.457Z,94
2023-03-21T11:47:59.473Z,92.3
2023-03-21T11:50:47.333Z,93
2023-03-21T11:53:35.204Z,93.2
2023-03-21T11:56:23.213Z,92.8
2023-03-21T11:59:12.743Z,93.1
2023-03-21T12:02:00.702Z,90.6
2023-03-21T12:04:48.795Z,91.7
2023-03-21T12:07:36.740Z,92.1
2023-03-21T12:10:24.567Z,92.3
2023-03-21T12:13:12.626Z,92.4
2023-03-21T12:16:00.599Z,92.3
2023-03-21T12:18:48.679Z,92.1
2023-03-21T12:21:36.477Z,92.3
2023-03-21T12:24:24.402Z,92.2
2023-03-21T12:27:12.343Z,90.6
2023-03-21T12:30:00.602Z,90.4
2023-03-21T12:32:48.465Z,90.3
2023-03-21T12:35:36.953Z,90.7
2023-03-21T12:38:26.541Z,90.7
2023-03-21T12:41:14.433Z,90.2
2023-03-21T12:44:02.330Z,90.1
2023-03-21T12:46:50.814Z,89.1
2023-03-21T12:49:38.807Z,89
2023-03-21T12:52:26.648Z,87.7
2023-03-21T12:55:14.337Z,87.6
2023-03-21T12:58:02.196Z,86.4
2023-03-21T13:00:50.074Z,84.9
2023-03-21T13:03:40.956Z,84.8
2023-03-21T13:06:28.973Z,83.9
2023-03-21T13:09:25.837Z,83.5
2023-03-21T13:12:16.433Z,83.4
2023-03-21T13:15:12.385Z,84
2023-03-21T13:18:02.913Z,84.6
2023-03-21T13:20:51.327Z,83.6
2023-03-21T13:23:39.243Z,83.3
2023-03-21T13:26:27.012Z,83.2
2023-03-21T13:29:14.816Z,83.8
2023-03-21T13:32:19.622Z,83.2
2023-03-21T13:35:07.264Z,81.9
2023-03-21T13:37:58.337Z,81.9
2023-03-21T13:40:46.152Z,79
2023-03-21T13:43:34.331Z,79
2023-03-21T13:46:22.464Z,79.4
2023-03-21T13:49:20.872Z,79
2023-03-21T13:52:08.604Z,79.6
2023-03-21T13:54:56.984Z,79.3
2023-03-21T13:57:44.733Z,78.6
2023-03-21T14:00:32.516Z,79.2
2023-03-21T14:03:20.325Z,79.6
2023-03-21T14:06:09.023Z,78.8
2023-03-21T14:09:05.846Z,78.6
2023-03-21T14:12:03.798Z,79.4
2023-03-21T14:14:51.930Z,80.6
2023-03-21T14:17:39.655Z,78.7
2023-03-21T14:20:27.427Z,77.2
2023-03-21T14:23:15.312Z,76.6
2023-03-21T14:26:12.825Z,74.7
2023-03-21T14:29:01.235Z,74.9
2023-03-21T14:31:49.837Z,75
2023-03-21T14:34:37.757Z,76
2023-03-21T14:37:27.420Z,77.1
2023-03-21T14:40:15.297Z,77.7
2023-03-21T14:43:03.160Z,77.6
2023-03-21T14:45:51.566Z,78.4
2023-03-21T14:48:39.610Z,78.1
2023-03-21T14:51:27.499Z,77.8
2023-03-21T14:54:15.221Z,78.8
2023-03-21T14:57:03.046Z,79.3
2023-03-21T14:59:50.725Z,76.9
2023-03-21T15:02:39.088Z,77.2
2023-03-21T15:05:26.968Z,77.3
2023-03-21T15:08:14.863Z,75.3
2023-03-21T15:11:09.079Z,73.2
2023-03-21T15:13:57.020Z,73
2023-03-21T15:16:44.872Z,73.3
2023-03-21T15:19:33.122Z,74
2023-03-21T15:22:20.875Z,74.1
2023-03-21T15:25:08.758Z,74.2
2023-03-21T15:27:56.705Z,74.5
2023-03-21T15:30:44.529Z,75.1
2023-03-21T15:33:32.323Z,74.8
2023-03-21T15:36:20.660Z,75
2023-03-21T15:39:08.744Z,75.6
2023-03-21T15:41:56.708Z,76
2023-03-21T15:44:44.472Z,76.2
2023-03-21T15:47:32.255Z,76.4
2023-03-21T15:50:20.142Z,76.8
2023-03-21T15:53:08.513Z,76.9
2023-03-21T15:55:56.374Z,77.2
2023-03-21T15:58:44.203Z,77.2
2023-03-21T16:01:32.281Z,77.4
2023-03-21T16:04:20.230Z,77.4
2023-03-21T16:07:08.043Z,77.4
2023-03-21T16:09:56.492Z,77.6
2023-03-21T16:12:47.191Z,77.8
2023-03-21T16:15:35.052Z,78.1
2023-03-21T16:18:22.680Z,78.3
2023-03-21T16:21:10.688Z,78.5
2023-03-21T16:23:58.492Z,78.7
2023-03-21T16:26:46.452Z,78.6
2023-03-21T16:29:34.377Z,78.5
2023-03-21T16:32:22.414Z,78.6
2023-03-21T16:35:10.305Z,78.6
2023-03-21T16:37:58.204Z,78.6
2023-03-21T16:40:46.048Z,78.7
2023-03-21T16:43:34.194Z,78.8
2023-03-21T16:46:22.253Z,78.9
2023-03-21T16:49:10.275Z,79
2023-03-21T16:51:58.130Z,79.1
2023-03-21T16:54:46.081Z,79.2
2023-03-21T16:57:33.851Z,79.3
2023-03-21T17:00:21.862Z,79.4
2023-03-21T17:03:09.695Z,79.4
2023-03-21T17:05:57.714Z,79.4
2023-03-21T17:08:45.642Z,79.5
2023-03-21T17:11:33.638Z,79.5
2023-03-21T17:14:21.616Z,79.5
2023-03-21T17:17:10.066Z,79.6
2023-03-21T17:19:58.643Z,79.7
2023-03-21T17:22:46.556Z,79.7
2023-03-21T17:25:34.405Z,79.8
2023-03-21T17:28:22.226Z,79.8
2023-03-21T17:31:10.672Z,79.9
2023-03-21T17:33:58.854Z,80
2023-03-21T17:36:46.686Z,80
2023-03-21T17:39:34.504Z,80.1
2023-03-21T17:42:22.296Z,80.1
2023-03-21T17:45:10.204Z,80.2
2023-03-21T17:47:58.171Z,80.3
2023-03-21T17:50:46.267Z,80.4
2023-03-21T17:53:34.014Z,80.5
2023-03-21T17:56:21.804Z,80.9
2023-03-21T17:59:09.581Z,81.3
2023-03-21T18:01:57.665Z,81.9
2023-03-21T18:04:45.652Z,82.2
2023-03-21T18:08:11.115Z,82.5
2023-03-21T18:10:59.115Z,82.6
2023-03-21T18:13:46.917Z,82.6
2023-03-21T18:16:34.983Z,82.4
2023-03-21T18:19:23.384Z,82.1
2023-03-21T18:22:13.398Z,81.9
2023-03-21T18:25:01.482Z,81.7
2023-03-21T18:28:12.288Z,81.7
2023-03-21T18:31:23.014Z,81.8
2023-03-21T18:34:11.102Z,81.8
2023-03-21T18:36:59.693Z,81.9
2023-03-21T18:39:48.923Z,82
2023-03-21T18:44:00.823Z,81.9
2023-03-21T18:46:52.861Z,81.8
2023-03-21T18:50:27.284Z,81.3
2023-03-21T18:53:15.271Z,81.2
2023-03-21T19:00:05.117Z,81
2023-03-21T19:03:17.443Z,80.9
2023-03-21T19:06:07.023Z,80.8
2023-03-21T19:08:54.976Z,80.7
2023-03-21T19:11:42.857Z,80.6
2023-03-21T19:14:31.032Z,80.5
2023-03-21T19:18:56.732Z,80.4
2023-03-21T19:21:44.641Z,80.2
2023-03-21T19:24:58.935Z,80.3
2023-03-21T19:27:46.997Z,80.3
2023-03-21T19:30:50.895Z,80.3
2023-03-21T19:33:39.082Z,80.3
2023-03-21T19:36:51.362Z,80.2
2023-03-21T19:39:39.429Z,80.2
2023-03-21T19:42:43.960Z,80.3
2023-03-21T19:45:31.954Z,80.5
2023-03-21T19:48:19.926Z,80.5
2023-03-21T19:51:54.806Z,80.4
2023-03-21T19:54:42.506Z,80.4
2023-03-21T19:57:30.397Z,80.5
2023-03-21T20:00:18.121Z,80.5
2023-03-21T20:03:06.377Z,80.7
2023-03-21T20:05:54.252Z,80.9
2023-03-21T20:12:30.044Z,81.4
2023-03-21T20:15:25.922Z,81.6
2023-03-21T20:18:14.707Z,81.7
2023-03-21T20:21:02.625Z,81.8
2023-03-21T20:23:50.634Z,81.8
2023-03-21T20:26:38.548Z,82
2023-03-21T20:30:12.029Z,82.3
2023-03-21T20:32:59.723Z,82.7
2023-03-21T20:36:40.632Z,83.1
2023-03-21T20:39:31.647Z,83.5
2023-03-21T20:42:20.138Z,83.6
2023-03-21T20:45:25.338Z,83.6
2023-03-21T20:48:13.611Z,83.6
2023-03-21T20:51:18.331Z,83.7
2023-03-21T20:54:29.180Z,83.9
2023-03-21T20:57:17.185Z,84
2023-03-21T21:00:05.082Z,83.9
2023-03-21T21:02:53.052Z,83.8
2023-03-21T21:05:54.754Z,83.6
2023-03-21T21:08:42.744Z,83.5
2023-03-21T21:12:27.051Z,83.4
2023-03-21T21:15:14.952Z,83.1
2023-03-21T21:18:32.450Z,83.1
2023-03-21T21:21:20.301Z,83
2023-03-21T21:24:08.188Z,83
2023-03-21T21:26:56.127Z,83
2023-03-21T21:29:44.031Z,82.9
2023-03-21T21:32:32.030Z,82.9
2023-03-21T21:35:20.127Z,82.9
2023-03-21T21:38:08.289Z,82.8
2023-03-21T21:40:56.004Z,82.8
2023-03-21T21:43:43.883Z,82.9
2023-03-21T21:46:31.910Z,82.9
2023-03-21T21:49:19.918Z,82.9
2023-03-21T21:52:07.910Z,82.9
2023-03-21T21:54:55.744Z,82.8
2023-03-21T21:57:43.789Z,82.9
2023-03-21T22:00:31.696Z,82.8
2023-03-21T22:03:19.801Z,82.9
2023-03-21T22:06:07.729Z,82.8
2023-03-21T22:08:55.744Z,82.8
2023-03-21T22:11:43.623Z,82.7
2023-03-21T22:14:31.455Z,82.7
2023-03-21T22:17:19.240Z,82.7
2023-03-21T22:20:09.029Z,82.7
2023-03-21T22:22:57.025Z,82.7
2023-03-21T22:25:45.044Z,82.7
2023-03-21T22:28:32.830Z,82.6
2023-03-21T22:31:20.886Z,82.6
2023-03-21T22:34:08.752Z,82.6
2023-03-21T22:36:56.589Z,82.6
2023-03-21T22:39:44.466Z,82.7
2023-03-21T22:42:32.360Z,82.8
2023-03-21T22:45:20.148Z,82.9
2023-03-21T22:48:08.279Z,82.9
2023-03-21T22:50:56.100Z,82.9
2023-03-21T22:53:43.957Z,82.9
2023-03-21T22:56:31.752Z,82.8
2023-03-21T22:59:19.684Z,82.6
2023-03-21T23:02:07.763Z,82.4
2023-03-21T23:04:55.752Z,82.4
2023-03-21T23:07:43.745Z,82.4
2023-03-21T23:10:31.680Z,82.7
2023-03-21T23:13:19.666Z,82.7
2023-03-21T23:16:07.590Z,82.9
2023-03-21T23:18:55.486Z,83
2023-03-21T23:21:43.297Z,83.2
2023-03-21T23:24:30.983Z,83.2
2023-03-21T23:27:18.841Z,83.2
2023-03-21T23:30:06.753Z,83.2
2023-03-21T23:32:54.611Z,83.2
2023-03-21T23:35:42.399Z,83.2
2023-03-21T23:38:30.274Z,83.2
2023-03-21T23:41:18.013Z,83.2
2023-03-21T23:44:05.745Z,83.2
2023-03-21T23:46:53.807Z,83.1
2023-03-21T23:49:41.747Z,83.1
2023-03-21T23:52:29.531Z,83.1
2023-03-21T23:55:17.437Z,83
2023-03-21T23:58:05.238Z,82.9
